Weather at Chicago O'Hare International Airport

Public forecast

Using degrees Fahrenheit for public forecast. Weather courtesy of forecast.io.

Current aviation weather report (METAR) for Chicago O'Hare International Airport

Retrieved 2021/07/29 08:51 UTC (16 minutes ago):

KORD 290851Z 21014KT 9SM VCTS -RA SCT055 BKN090 OVC130 22/19 A2992 RMK AO2 PK WND 33042/0802 WSHFT 0755 LTG DSNT ALQDS RAB0752 TSB0752E33E48 SLP126 P0016 60016 T02220189 58003

Aviation forecast (TAF) for Chicago O'Hare International Airport

Retrieved 2021/07/29 06:22 UTC (3 hours ago):

TAF KORD 290520Z 2906/3012 22011KT P6SM VCSH SCT025 BKN150 TEMPO 2908/2910 35030G45KT 2SM TSRA SCT009 BKN020CB FM291100 28012G20KT P6SM SCT020 BKN150 FM291400 33011G17KT P6SM BKN020 FM291700 04012G18KT P6SM SCT025 BKN035 FM300000 03011KT P6SM SCT035 SCT250